»·PEaware :: USC81 KLAS-KTSP

USC81 :: KLAS-KTSP

FLIGHT INFORMATION

Flight Status: Arrived
Operator: Unknown
More flights by this operator :: More flights under this callsign
Pilot: Andy P. (22680)
Aircraft: GATES LEARJET LEARJET 35/36
(LJ35)
More flights by this aircraft type
Origin: KLAS McCarran Intl
United States
Destination: KTSP Tehachapi Mun
United States
More flights between these airports :: More routes between these airports
Route: BOACH8 HEC J6 PMD LANDO
File this flight plan on PilotEdge
Remarks:
Altitude:
(Current/Filed)
28,000ft
Speed:
(Current/Filed)
465kts
Departed: 10-Oct-19 06:56 PM
Arrived: 10-Oct-19 07:40 PM
Distance/Time
Traveled:
170nm/0:43
Distance/Time
To Go:
Arrived

Flight Plot

Page will automatically refresh every two minutes.

Flight plan parsing failed; only flown route is shown


Map Options




Map Legend


Flown Route
Filed Route
Departure Airport
Arrival Airport
Navaid (VOR, NDB)
Fix

Horizontal Profiles

Position Reports

Time Latitude Longitude Heading Altitude Ground
Speed
10-Oct-19 18:28 36.082913 -115.125572 90 2183ft 0kts
10-Oct-19 18:30 36.082913 -115.125572 90 2184ft 0kts
10-Oct-19 18:31 36.082913 -115.125572 90 2184ft 0kts
10-Oct-19 18:32 36.082913 -115.125572 90 2184ft 0kts
10-Oct-19 18:32 36.082913 -115.125572 90 2184ft 0kts
10-Oct-19 18:34 36.082913 -115.125572 90 2184ft 0kts
10-Oct-19 18:35 36.082913 -115.125572 90 2184ft 0kts
10-Oct-19 18:35 36.082913 -115.125572 90 2184ft 0kts
10-Oct-19 18:36 36.082913 -115.125572 90 2184ft 0kts
10-Oct-19 18:38 36.082913 -115.125572 90 2184ft 0kts
10-Oct-19 18:38 36.082913 -115.125572 90 2184ft 0kts
10-Oct-19 18:39 36.082913 -115.125572 90 2184ft 0kts
10-Oct-19 18:40 36.082913 -115.125572 90 2184ft 0kts
10-Oct-19 18:41 36.082913 -115.125572 90 2184ft 0kts
10-Oct-19 18:42 36.082913 -115.125572 90 2184ft 0kts
10-Oct-19 18:43 36.082913 -115.125570 90 2184ft 0kts
10-Oct-19 18:44 36.082913 -115.125567 90 2184ft 0kts
10-Oct-19 18:45 36.082913 -115.125563 90 2184ft 0kts
10-Oct-19 18:46 36.080755 -115.126353 180 2184ft 24kts
10-Oct-19 18:47 36.079325 -115.126342 180 2184ft 14kts
10-Oct-19 18:48 36.077569 -115.130852 270 2184ft 25kts
10-Oct-19 18:49 36.077543 -115.140053 269 2184ft 28kts
10-Oct-19 18:50 36.077995 -115.150556 272 2184ft 30kts
10-Oct-19 18:51 36.078038 -115.161292 271 2184ft 29kts
10-Oct-19 18:52 36.077519 -115.163378 203 2184ft 0kts
10-Oct-19 18:53 36.077485 -115.163396 203 2184ft 0kts
10-Oct-19 18:54 36.077000 -115.163654 201 2184ft 14kts
10-Oct-19 18:55 36.076267 -115.127536 89 3256ft 192kts
10-Oct-19 18:56 36.074855 -115.060306 88 5595ft 206kts
10-Oct-19 18:57 36.074598 -114.988055 88 6964ft 207kts
10-Oct-19 18:58 36.034257 -114.932493 155 9873ft 254kts
10-Oct-19 18:59 35.957629 -114.910407 193 12922ft 323kts
10-Oct-19 19:00 35.891699 -114.987895 230 15801ft 344kts
10-Oct-19 19:01 35.821570 -115.072512 232 17572ft 355kts
10-Oct-19 19:02 35.759417 -115.169671 234 18824ft 375kts
10-Oct-19 19:03 35.691570 -115.274413 235 19219ft 413kts
10-Oct-19 19:04 35.612529 -115.384441 231 19931ft 433kts
10-Oct-19 19:05 35.529747 -115.494736 231 21947ft 442kts
10-Oct-19 19:06 35.446064 -115.606671 232 23426ft 448kts
10-Oct-19 19:07 35.361122 -115.719987 232 24497ft 453kts
10-Oct-19 19:08 35.275386 -115.833997 231 25306ft 455kts
10-Oct-19 19:09 35.189387 -115.947970 231 25878ft 457kts
10-Oct-19 19:10 35.102524 -116.062708 231 26674ft 462kts
10-Oct-19 19:11 35.015047 -116.177853 231 27461ft 464kts
10-Oct-19 19:12 34.927153 -116.293154 230 28046ft 463kts
10-Oct-19 19:13 34.840553 -116.406384 230 28191ft 457kts
10-Oct-19 19:14 34.775349 -116.534259 264 28189ft 450kts
10-Oct-19 19:15 34.772277 -116.686368 266 28192ft 449kts
10-Oct-19 19:16 34.760237 -116.836057 263 28189ft 440kts
10-Oct-19 19:17 34.745636 -116.983064 263 28187ft 437kts
10-Oct-19 19:18 34.731101 -117.126248 263 27008ft 425kts
10-Oct-19 19:19 34.716136 -117.271790 263 25166ft 441kts
10-Oct-19 19:20 34.700757 -117.420577 263 24196ft 447kts
10-Oct-19 19:21 34.684848 -117.570575 263 24120ft 431kts
10-Oct-19 19:22 34.670947 -117.700607 263 21836ft 373kts
10-Oct-19 19:23 34.657221 -117.828120 263 19752ft 391kts
10-Oct-19 19:24 34.642705 -117.961617 263 17514ft 404kts
10-Oct-19 19:25 34.652310 -118.090897 299 15629ft 349kts
10-Oct-19 19:26 34.708752 -118.174943 310 14193ft 309kts
10-Oct-19 19:27 34.762341 -118.252784 310 13956ft 289kts
10-Oct-19 19:28 34.812513 -118.325487 311 10982ft 270kts
10-Oct-19 19:29 34.859635 -118.393810 311 8377ft 248kts
10-Oct-19 19:30 34.911618 -118.428057 8 7689ft 212kts
10-Oct-19 19:31 34.965861 -118.420171 1 7659ft 186kts
10-Oct-19 19:32 35.017070 -118.424299 354 7423ft 177kts
10-Oct-19 19:33 35.065801 -118.431615 354 7475ft 174kts
10-Oct-19 19:34 35.116985 -118.439280 0 6435ft 186kts
10-Oct-19 19:35 35.164373 -118.452906 318 5447ft 169kts
10-Oct-19 19:36 35.176382 -118.496163 198 5134ft 128kts
10-Oct-19 19:37 35.152498 -118.470198 123 4538ft 124kts
10-Oct-19 19:38 35.135109 -118.439446 122 4004ft 55kts
10-Oct-19 19:39 35.132327 -118.435249 303 4004ft 21kts
10-Oct-19 19:40 35.135133 -118.440930 289 4004ft 9kts
10-Oct-19 19:41 35.135189 -118.441183 297 4004ft 0kts
10-Oct-19 19:42 35.135189 -118.441183 297 4004ft 0kts
10-Oct-19 19:43 35.135189 -118.441183 297 4004ft 0kts
10-Oct-19 19:44 35.135189 -118.441183 297 4004ft 0kts
10-Oct-19 19:45 35.135189 -118.441183 297 4004ft 0kts
10-Oct-19 19:46 35.135189 -118.441183 297 4004ft 0kts
10-Oct-19 19:47 35.135189 -118.441183 297 4004ft 0kts
10-Oct-19 19:48 35.135189 -118.441183 297 4003ft 0kts
10-Oct-19 19:49 35.135189 -118.441183 297 4003ft 0kts
10-Oct-19 19:50 35.135189 -118.441183 297 4003ft 0kts
10-Oct-19 19:51 35.135189 -118.441183 297 4003ft 0kts
10-Oct-19 19:52 35.135189 -118.441183 297 4003ft 0kts
10-Oct-19 19:53 35.135189 -118.441183 297 4003ft 0kts

Navigation Log

Ident Type
Flight plan parsing failed, navigation log unavailable